createdAt,value
2023-05-24T00:00:28.152Z,15.26
2023-05-24T00:03:15.915Z,15.19
2023-05-24T00:05:42.812Z,15.14
2023-05-24T00:08:09.465Z,15.12
2023-05-24T00:10:35.917Z,15.11
2023-05-24T00:13:02.377Z,15.04
2023-05-24T00:15:28.951Z,14.97
2023-05-24T00:17:55.413Z,14.93
2023-05-24T00:20:22.029Z,14.90
2023-05-24T00:22:48.546Z,14.84
2023-05-24T00:25:15.206Z,14.83
2023-05-24T00:27:41.804Z,14.78
2023-05-24T00:30:08.386Z,14.76
2023-05-24T00:32:34.858Z,14.71
2023-05-24T00:35:03.632Z,14.71
2023-05-24T00:37:31.651Z,14.64
2023-05-24T00:39:58.102Z,14.59
2023-05-24T00:42:24.464Z,14.45
2023-05-24T00:44:50.874Z,14.38
2023-05-24T00:47:17.652Z,14.23
2023-05-24T00:49:46.270Z,14.11
2023-05-24T00:52:12.837Z,14.01
2023-05-24T00:54:40.400Z,13.95
2023-05-24T00:57:07.046Z,13.94
2023-05-24T00:59:33.702Z,13.89
2023-05-24T01:02:00.339Z,13.91
2023-05-24T01:04:27.621Z,13.85
2023-05-24T01:07:17.423Z,13.76
2023-05-24T01:10:03.611Z,13.70
2023-05-24T01:12:54.350Z,13.56
2023-05-24T01:15:30.826Z,13.42
2023-05-24T01:18:00.965Z,13.33
2023-05-24T01:20:32.262Z,13.25
2023-05-24T01:23:15.517Z,13.10
2023-05-24T01:25:49.213Z,12.95
2023-05-24T01:28:19.311Z,12.72
2023-05-24T01:30:46.724Z,12.53
2023-05-24T01:33:13.766Z,12.30
2023-05-24T01:35:41.619Z,12.27
2023-05-24T01:38:10.329Z,12.19
2023-05-24T01:40:37.737Z,12.18
2023-05-24T01:43:06.342Z,12.13
2023-05-24T01:45:37.424Z,12.08
2023-05-24T01:48:13.280Z,12.08
2023-05-24T01:50:49.422Z,12.16
2023-05-24T01:53:19.262Z,12.20
2023-05-24T01:55:48.548Z,12.20
2023-05-24T01:58:15.955Z,12.14
2023-05-24T02:00:44.330Z,12.04
2023-05-24T02:03:13.838Z,11.96
2023-05-24T02:05:40.313Z,11.89
2023-05-24T02:08:06.964Z,11.78
2023-05-24T02:10:33.393Z,11.75
2023-05-24T02:13:00.058Z,11.76
2023-05-24T02:15:29.629Z,11.73
2023-05-24T02:17:57.908Z,11.68
2023-05-24T02:20:24.753Z,11.62
2023-05-24T02:22:51.167Z,11.57
2023-05-24T02:25:17.564Z,11.53
2023-05-24T02:27:46.465Z,11.57
2023-05-24T02:30:13.269Z,11.59
2023-05-24T02:32:40.321Z,11.60
2023-05-24T02:35:07.293Z,11.59
2023-05-24T02:37:33.809Z,11.55
2023-05-24T02:40:00.303Z,11.57
2023-05-24T02:42:26.743Z,11.51
2023-05-24T02:44:53.224Z,11.46
2023-05-24T02:47:19.762Z,11.43
2023-05-24T02:49:46.268Z,11.48
2023-05-24T02:52:14.013Z,11.55
2023-05-24T02:54:40.534Z,11.59
2023-05-24T02:57:06.937Z,11.59
2023-05-24T02:59:33.589Z,11.57
2023-05-24T03:02:00.811Z,11.49
2023-05-24T03:04:27.493Z,11.47
2023-05-24T03:06:54.281Z,11.52
2023-05-24T03:09:21.589Z,11.63
2023-05-24T03:11:49.097Z,11.67
2023-05-24T03:14:16.760Z,11.66
2023-05-24T03:16:43.438Z,11.64
2023-05-24T03:19:10.233Z,11.58
2023-05-24T03:21:37.358Z,11.52
2023-05-24T03:24:04.014Z,11.54
2023-05-24T03:26:30.955Z,11.55
2023-05-24T03:28:57.415Z,11.58
2023-05-24T03:31:28.551Z,11.59
2023-05-24T03:33:55.678Z,11.57
2023-05-24T03:36:22.610Z,11.53
2023-05-24T03:38:49.815Z,11.47
2023-05-24T03:41:17.739Z,11.47
2023-05-24T03:43:44.149Z,11.48
2023-05-24T03:46:15.526Z,11.48
2023-05-24T03:48:42.418Z,11.49
2023-05-24T03:51:08.830Z,11.56
2023-05-24T03:53:35.289Z,11.62
2023-05-24T03:56:01.824Z,11.60
2023-05-24T03:58:28.413Z,11.60
2023-05-24T04:00:55.031Z,11.65
2023-05-24T04:03:22.386Z,11.67
2023-05-24T04:05:49.204Z,11.71
2023-05-24T04:08:15.898Z,11.75
2023-05-24T04:10:42.974Z,11.78
2023-05-24T04:13:11.008Z,11.82
2023-05-24T04:15:37.581Z,11.85
2023-05-24T04:18:05.064Z,11.83
2023-05-24T04:20:34.136Z,11.78
2023-05-24T04:23:00.661Z,11.75
2023-05-24T04:25:27.093Z,11.75
2023-05-24T04:27:55.493Z,11.73
2023-05-24T04:30:23.234Z,11.73
2023-05-24T04:32:50.787Z,11.69
2023-05-24T04:35:17.626Z,11.68
2023-05-24T04:37:44.522Z,11.65
2023-05-24T04:40:11.706Z,11.66
2023-05-24T04:42:38.578Z,11.70
2023-05-24T04:45:06.464Z,11.74
2023-05-24T04:47:32.949Z,11.79
2023-05-24T04:49:59.500Z,11.78
2023-05-24T04:52:25.990Z,11.75
2023-05-24T04:54:54.578Z,11.72
2023-05-24T04:57:21.608Z,11.66
2023-05-24T04:59:48.390Z,11.58
2023-05-24T05:02:14.932Z,11.51
2023-05-24T05:04:41.728Z,11.42
2023-05-24T05:07:08.398Z,11.35
2023-05-24T05:09:35.236Z,11.33
2023-05-24T05:12:02.305Z,11.34
2023-05-24T05:14:29.063Z,11.33
2023-05-24T05:16:55.579Z,11.38
2023-05-24T05:19:22.145Z,11.52
2023-05-24T05:21:48.651Z,11.68
2023-05-24T05:24:16.140Z,11.75
2023-05-24T05:26:42.585Z,11.72
2023-05-24T05:29:09.380Z,11.67
2023-05-24T05:31:35.960Z,11.66
2023-05-24T05:34:02.511Z,11.74
2023-05-24T05:36:29.020Z,11.83
2023-05-24T05:38:55.508Z,11.90
2023-05-24T05:41:21.984Z,11.96
2023-05-24T05:43:48.470Z,12.05
2023-05-24T05:46:15.571Z,12.08
2023-05-24T05:48:43.279Z,12.13
2023-05-24T05:51:11.498Z,12.23
2023-05-24T05:53:37.887Z,12.22
2023-05-24T05:56:04.475Z,12.29
2023-05-24T05:58:31.115Z,12.29
2023-05-24T06:00:57.942Z,12.35
2023-05-24T06:03:24.588Z,12.39
2023-05-24T06:05:51.264Z,12.46
2023-05-24T06:08:17.669Z,12.49
2023-05-24T06:10:44.927Z,12.61
2023-05-24T06:13:13.926Z,12.68
2023-05-24T06:15:40.518Z,12.72
2023-05-24T06:18:07.080Z,12.81
2023-05-24T06:20:33.717Z,12.84
2023-05-24T06:23:00.770Z,12.87
2023-05-24T06:25:30.139Z,12.90
2023-05-24T06:27:56.733Z,12.93
2023-05-24T06:30:23.251Z,12.97
2023-05-24T06:32:50.191Z,12.96
2023-05-24T06:35:17.116Z,12.92
2023-05-24T06:37:43.717Z,12.90
2023-05-24T06:40:10.888Z,12.94
2023-05-24T06:42:37.531Z,13.04
2023-05-24T06:45:04.734Z,13.03
2023-05-24T06:47:31.477Z,13.05
2023-05-24T06:49:58.164Z,13.03
2023-05-24T06:52:24.858Z,13.00
2023-05-24T06:54:51.721Z,13.06
2023-05-24T06:57:18.339Z,13.14
2023-05-24T06:59:44.945Z,13.22
2023-05-24T07:02:11.533Z,13.27
2023-05-24T07:04:40.678Z,13.25
2023-05-24T07:07:08.323Z,13.25
2023-05-24T07:09:35.119Z,13.26
2023-05-24T07:12:01.950Z,13.33
2023-05-24T07:14:28.403Z,13.45
2023-05-24T07:16:56.726Z,13.53
2023-05-24T07:19:27.066Z,13.50
2023-05-24T07:21:53.729Z,13.52
2023-05-24T07:24:21.379Z,13.48
2023-05-24T07:26:48.648Z,13.54
2023-05-24T07:29:15.427Z,13.62
2023-05-24T07:31:42.090Z,13.67
2023-05-24T07:34:08.572Z,13.69
2023-05-24T07:36:35.163Z,13.68
2023-05-24T07:39:04.049Z,13.66
2023-05-24T07:41:30.820Z,13.63
2023-05-24T07:43:57.262Z,13.72
2023-05-24T07:46:23.866Z,13.89
2023-05-24T07:48:50.818Z,13.97
2023-05-24T07:51:17.249Z,13.96
2023-05-24T07:53:43.727Z,13.79
2023-05-24T07:56:10.547Z,13.80
2023-05-24T07:58:37.221Z,13.81
2023-05-24T12:09:29.498Z,17.45
2023-05-24T12:11:58.539Z,17.31
2023-05-24T12:14:30.925Z,17.26
2023-05-24T12:17:01.097Z,17.14
2023-05-24T12:19:36.758Z,17.11
2023-05-24T12:22:07.241Z,17.17
2023-05-24T12:24:37.739Z,17.19
2023-05-24T12:27:07.411Z,17.32
2023-05-24T12:29:38.648Z,17.58
2023-05-24T12:32:12.343Z,17.79
2023-05-24T12:34:42.621Z,18.06
2023-05-24T12:37:15.149Z,18.36
2023-05-24T12:39:44.523Z,18.54
2023-05-24T12:42:13.902Z,18.55
2023-05-24T12:44:42.501Z,18.57
2023-05-24T12:47:10.672Z,18.63
2023-05-24T12:49:38.858Z,18.64
2023-05-24T12:52:07.231Z,18.61
2023-05-24T12:54:35.619Z,18.50
2023-05-24T12:57:03.869Z,18.39
2023-05-24T12:59:31.902Z,18.31
2023-05-24T13:01:59.733Z,18.25
2023-05-24T13:04:28.213Z,18.18
2023-05-24T13:06:56.254Z,18.20
2023-05-24T13:09:25.959Z,18.21
2023-05-24T13:11:55.425Z,18.21
2023-05-24T13:14:23.487Z,18.22
2023-05-24T13:16:51.584Z,18.38
2023-05-24T13:19:19.718Z,18.69
2023-05-24T13:21:47.710Z,19.31
2023-05-24T13:24:16.556Z,19.99
2023-05-24T13:26:45.634Z,20.32
2023-05-24T13:31:48.246Z,20.24
2023-05-24T13:34:16.143Z,20.15
2023-05-24T13:36:45.610Z,20.09
2023-05-24T13:39:16.268Z,20.17
2023-05-24T13:41:45.500Z,20.52
2023-05-24T13:44:14.533Z,21.17
2023-05-24T13:46:43.644Z,21.73
2023-05-24T13:49:12.904Z,22.16
2023-05-24T13:51:40.866Z,22.33
2023-05-24T13:54:08.911Z,22.33
2023-05-24T13:56:37.273Z,22.26
2023-05-24T13:59:06.485Z,22.15
2023-05-24T14:01:37.144Z,22.08
2023-05-24T14:04:06.186Z,22.25
2023-05-24T14:06:34.906Z,22.53
2023-05-24T14:09:02.800Z,23.07
2023-05-24T14:11:31.881Z,23.49
2023-05-24T14:16:31.690Z,23.28
2023-05-24T14:18:59.868Z,22.88
2023-05-24T14:21:28.022Z,22.55
2023-05-24T14:23:56.091Z,22.29
2023-05-24T14:26:24.473Z,22.49
2023-05-24T14:28:55.993Z,22.80
2023-05-24T14:31:24.867Z,22.82
2023-05-24T14:33:53.133Z,23.09
2023-05-24T14:36:21.312Z,23.63
2023-05-24T14:38:49.471Z,24.15
2023-05-24T14:41:17.389Z,24.03
2023-05-24T14:43:45.665Z,24.20
2023-05-24T14:46:13.643Z,24.57
2023-05-24T14:48:41.810Z,24.93
2023-05-24T14:51:09.870Z,25.35
2023-05-24T14:53:37.753Z,25.64
2023-05-24T14:56:08.243Z,26.11
2023-05-24T14:58:36.426Z,26.77
2023-05-24T15:01:04.714Z,27.24
2023-05-24T15:03:33.177Z,27.61
2023-05-24T15:06:01.945Z,27.88
2023-05-24T15:08:30.978Z,27.82
2023-05-24T15:10:59.610Z,27.79
2023-05-24T15:13:27.805Z,27.19
2023-05-24T15:15:59.052Z,26.82
2023-05-24T15:18:30.464Z,27.04
2023-05-24T15:20:58.598Z,27.85
2023-05-24T15:23:26.859Z,28.66
2023-05-24T15:25:54.750Z,29.44
2023-05-24T15:28:24.763Z,29.53
2023-05-24T15:30:54.543Z,29.60
2023-05-24T15:33:22.897Z,29.63
2023-05-24T15:35:51.274Z,29.35
2023-05-24T15:38:19.450Z,30.00
2023-05-24T15:40:47.364Z,30.58
2023-05-24T15:46:23.204Z,30.37
2023-05-24T15:48:51.223Z,30.69
2023-05-24T15:51:57.460Z,31.41
2023-05-24T15:54:08.113Z,31.89
2023-05-24T15:56:35.921Z,32.30
2023-05-24T15:59:03.880Z,32.31
2023-05-24T16:01:31.903Z,30.63
2023-05-24T16:04:00.655Z,28.86
2023-05-24T16:06:28.859Z,27.76
2023-05-24T16:08:56.855Z,26.81
2023-05-24T16:11:24.850Z,26.30
2023-05-24T16:13:54.289Z,27.73
2023-05-24T16:16:23.712Z,28.97
2023-05-24T16:18:51.762Z,28.40
2023-05-24T16:21:19.961Z,27.75
2023-05-24T16:23:48.232Z,26.96
2023-05-24T16:27:03.816Z,26.06
2023-05-24T16:29:32.071Z,25.46
2023-05-24T16:32:00.547Z,25.71
2023-05-24T16:34:28.860Z,26.92
2023-05-24T16:36:57.454Z,27.00
2023-05-24T16:39:26.067Z,28.41
2023-05-24T16:41:54.089Z,29.40
2023-05-24T16:44:22.458Z,30.16
2023-05-24T16:46:50.476Z,30.49
2023-05-24T16:49:18.815Z,30.50
2023-05-24T16:51:47.066Z,29.49
2023-05-24T16:54:16.329Z,29.35
2023-05-24T16:56:46.200Z,29.13
2023-05-24T16:59:14.461Z,28.25
2023-05-24T17:01:45.275Z,27.88
2023-05-24T17:04:13.888Z,27.95
2023-05-24T17:06:42.320Z,27.88
2023-05-24T17:09:10.209Z,28.06
2023-05-24T17:11:38.077Z,28.76
2023-05-24T17:14:06.470Z,29.50
2023-05-24T17:16:34.515Z,30.03
2023-05-24T17:19:03.578Z,30.44
2023-05-24T17:21:32.417Z,30.80
2023-05-24T17:24:00.886Z,30.78
2023-05-24T17:26:29.303Z,30.30
2023-05-24T17:28:57.690Z,29.93
2023-05-24T17:31:25.690Z,29.88
2023-05-24T17:33:55.822Z,29.87
2023-05-24T17:36:23.979Z,29.44
2023-05-24T17:38:51.843Z,28.27
2023-05-24T17:41:21.093Z,27.12
2023-05-24T17:43:50.364Z,26.20
2023-05-24T17:46:18.308Z,25.05
2023-05-24T17:48:47.787Z,24.05
2023-05-24T17:51:19.474Z,23.17
2023-05-24T17:53:47.422Z,22.49
2023-05-24T17:56:16.513Z,21.76
2023-05-24T17:58:47.471Z,21.16
2023-05-24T18:01:16.471Z,20.78
2023-05-24T18:03:44.472Z,20.49
2023-05-24T18:06:12.859Z,20.25
2023-05-24T18:08:43.872Z,19.99
2023-05-24T18:11:14.000Z,19.72
2023-05-24T18:13:43.186Z,19.50
2023-05-24T18:16:12.316Z,19.26
2023-05-24T18:18:41.454Z,18.98
2023-05-24T18:21:09.895Z,18.78
2023-05-24T18:23:38.159Z,18.60
2023-05-24T18:26:11.363Z,18.40
2023-05-24T18:28:42.213Z,18.22
2023-05-24T18:31:12.002Z,18.08
2023-05-24T18:33:41.136Z,17.88
2023-05-24T18:36:09.632Z,17.67
2023-05-24T18:38:41.437Z,17.46
2023-05-24T18:41:11.908Z,17.29
2023-05-24T18:43:43.153Z,17.12
2023-05-24T18:46:13.950Z,16.95
2023-05-24T18:48:42.225Z,16.82
2023-05-24T18:51:10.484Z,16.67
2023-05-24T18:53:40.192Z,16.52
2023-05-24T18:56:08.645Z,16.38
2023-05-24T18:58:37.666Z,16.30
2023-05-24T19:01:06.336Z,16.20
2023-05-24T19:03:34.868Z,16.10
2023-05-24T19:06:03.560Z,16.02
2023-05-24T19:08:31.801Z,15.93
2023-05-24T19:10:59.825Z,15.85
2023-05-24T19:13:28.122Z,15.76
2023-05-24T19:15:56.532Z,15.67
2023-05-24T19:18:26.628Z,15.60
2023-05-24T19:20:54.837Z,15.52
2023-05-24T19:23:23.093Z,15.44
2023-05-24T19:25:51.475Z,15.35
2023-05-24T19:28:19.710Z,15.25
2023-05-24T19:30:48.633Z,15.16
2023-05-24T19:33:16.909Z,15.08
2023-05-24T19:35:46.146Z,15.02
2023-05-24T19:38:17.616Z,14.94
2023-05-24T19:40:46.050Z,14.88
2023-05-24T19:43:14.043Z,14.81
2023-05-24T19:45:42.321Z,14.74
2023-05-24T19:48:11.921Z,14.68
2023-05-24T19:50:40.652Z,14.60
2023-05-24T19:53:09.052Z,14.53
2023-05-24T19:55:37.628Z,14.45
2023-05-24T19:58:05.863Z,14.38
2023-05-24T20:00:34.197Z,14.32
2023-05-24T20:03:02.637Z,14.27
2023-05-24T20:05:31.158Z,14.20
2023-05-24T20:07:59.491Z,14.13
2023-05-24T20:10:30.177Z,14.10
2023-05-24T20:12:59.225Z,14.07
2023-05-24T20:15:28.398Z,14.01
2023-05-24T20:17:56.688Z,13.96
2023-05-24T20:20:26.107Z,13.89
2023-05-24T20:22:54.378Z,13.83
2023-05-24T20:25:24.253Z,13.76
2023-05-24T20:27:52.430Z,13.69
2023-05-24T20:30:20.776Z,13.64
2023-05-24T20:32:49.319Z,13.60
2023-05-24T20:35:17.380Z,13.57
2023-05-24T20:37:45.587Z,13.50
2023-05-24T20:40:23.097Z,13.43
2023-05-24T20:42:51.727Z,13.35
2023-05-24T20:45:19.906Z,13.33
2023-05-24T20:47:48.911Z,13.29
2023-05-24T20:50:17.937Z,13.24
2023-05-24T20:52:46.317Z,13.16
2023-05-24T20:55:16.647Z,13.07
2023-05-24T20:57:45.206Z,13.01
2023-05-24T21:00:13.633Z,13.00
2023-05-24T21:02:41.518Z,12.98
2023-05-24T21:05:10.009Z,12.93
2023-05-24T21:07:38.407Z,12.88
2023-05-24T21:10:07.701Z,12.79
2023-05-24T21:12:35.697Z,12.73
2023-05-24T21:15:04.234Z,12.68
2023-05-24T21:17:32.097Z,12.65
2023-05-24T21:19:59.952Z,12.65
2023-05-24T21:22:27.876Z,12.65
2023-05-24T21:24:56.700Z,12.67
2023-05-24T21:27:24.588Z,12.71
2023-05-24T21:29:52.390Z,12.75
2023-05-24T21:32:20.435Z,12.78
2023-05-24T21:34:49.775Z,12.79
2023-05-24T21:37:17.606Z,12.76
2023-05-24T21:39:45.613Z,12.78
2023-05-24T21:42:13.417Z,12.82
2023-05-24T21:44:41.245Z,12.88
2023-05-24T21:47:09.309Z,12.89
2023-05-24T21:49:37.116Z,12.87
2023-05-24T21:52:05.163Z,12.81
2023-05-24T21:54:33.006Z,12.80
2023-05-24T21:57:01.579Z,12.76
2023-05-24T21:59:29.532Z,12.70
2023-05-24T22:01:57.402Z,12.72
2023-05-24T22:04:25.410Z,12.79
2023-05-24T22:06:53.184Z,12.87
2023-05-24T22:09:21.032Z,12.93
2023-05-24T22:11:48.843Z,13.00
2023-05-24T22:14:16.781Z,13.06
2023-05-24T22:16:44.768Z,13.10
2023-05-24T22:19:16.430Z,13.13
2023-05-24T22:21:50.163Z,13.14
2023-05-24T22:24:18.219Z,13.13
2023-05-24T22:26:46.781Z,13.14
2023-05-24T22:29:14.860Z,13.13
2023-05-24T22:31:42.697Z,13.06
2023-05-24T22:34:11.563Z,13.01
2023-05-24T22:36:39.581Z,13.01
2023-05-24T22:39:07.945Z,13.00
2023-05-24T22:41:35.841Z,12.89
2023-05-24T22:44:03.774Z,12.85
2023-05-24T22:46:31.913Z,12.83
2023-05-24T22:49:03.245Z,12.81
2023-05-24T22:51:31.870Z,12.73
2023-05-24T22:54:00.497Z,12.64
2023-05-24T22:56:28.489Z,12.52
2023-05-24T22:58:56.912Z,12.51
2023-05-24T23:01:24.815Z,12.52
2023-05-24T23:03:53.491Z,12.54
2023-05-24T23:06:21.404Z,12.53
2023-05-24T23:08:49.239Z,12.53
2023-05-24T23:11:17.545Z,12.54
2023-05-24T23:13:45.358Z,12.55
2023-05-24T23:16:17.959Z,12.55
2023-05-24T23:18:45.977Z,12.50
2023-05-24T23:21:22.445Z,12.46
2023-05-24T23:23:51.433Z,12.42
2023-05-24T23:26:19.596Z,12.40
2023-05-24T23:28:47.506Z,12.33
2023-05-24T23:31:15.815Z,12.27
2023-05-24T23:33:43.787Z,12.23
2023-05-24T23:36:11.772Z,12.21
2023-05-24T23:38:39.608Z,12.20
2023-05-24T23:41:07.389Z,12.20
2023-05-24T23:43:35.276Z,12.18
2023-05-24T23:46:03.352Z,12.16
2023-05-24T23:48:31.209Z,12.11
2023-05-24T23:50:59.169Z,12.09
2023-05-24T23:53:26.974Z,12.04
2023-05-24T23:55:54.844Z,12.01
2023-05-24T23:58:22.777Z,11.97
